createdAt,value
2016-08-02T00:00:18.470Z,15.11
2016-08-02T00:01:12.387Z,15.07
2016-08-02T00:02:18.611Z,15.11
2016-08-02T00:03:18.353Z,15.18
2016-08-02T00:04:18.280Z,15.23
2016-08-02T00:06:19.005Z,15.24
2016-08-02T00:07:17.613Z,15.20
2016-08-02T00:08:17.890Z,15.19
2016-08-02T00:09:17.721Z,15.23
2016-08-02T00:10:22.887Z,15.12
2016-08-02T00:11:17.774Z,15.07
2016-08-02T00:12:18.383Z,15.02
2016-08-02T00:13:22.533Z,15.08
2016-08-02T00:15:14.926Z,15.05
2016-08-02T00:18:19.213Z,14.96
2016-08-02T00:19:19.005Z,15.04
2016-08-02T00:20:22.857Z,15.00
2016-08-02T00:21:18.024Z,14.98
2016-08-02T00:23:28.243Z,15.00
2016-08-02T00:24:17.723Z,14.90
2016-08-02T00:26:22.997Z,14.86
2016-08-02T00:28:21.442Z,14.81
2016-08-02T00:29:18.541Z,14.87
2016-08-02T00:30:22.499Z,14.87
2016-08-02T00:31:16.926Z,14.92
2016-08-02T00:32:13.205Z,14.92
2016-08-02T00:33:19.245Z,14.93
2016-08-02T00:34:16.699Z,14.88
2016-08-02T00:35:20.690Z,14.85
2016-08-02T00:36:22.919Z,14.87
2016-08-02T00:37:22.224Z,14.90
2016-08-02T00:38:24.406Z,14.89
2016-08-02T00:39:19.027Z,14.85
2016-08-02T00:40:22.019Z,14.83
2016-08-02T00:41:19.385Z,14.81
2016-08-02T00:42:17.466Z,14.84
2016-08-02T00:43:14.636Z,14.77
2016-08-02T00:44:16.889Z,14.76
2016-08-02T00:45:28.751Z,14.80
2016-08-02T00:46:13.764Z,14.77
2016-08-02T00:47:23.385Z,14.87
2016-08-02T00:48:13.108Z,14.90
2016-08-02T00:50:17.050Z,14.82
2016-08-02T00:51:18.816Z,14.79
2016-08-02T00:52:26.411Z,14.80
2016-08-02T00:53:18.579Z,14.83
2016-08-02T00:55:13.011Z,14.78
2016-08-02T00:56:23.237Z,14.74
2016-08-02T00:57:21.634Z,14.76
2016-08-02T00:58:17.218Z,14.69
2016-08-02T00:59:14.389Z,14.71
2016-08-02T01:00:17.538Z,14.71
2016-08-02T01:01:18.346Z,14.71
2016-08-02T01:02:14.409Z,14.69
2016-08-02T01:03:14.944Z,14.68
2016-08-02T01:04:18.154Z,14.68
2016-08-02T01:05:28.382Z,14.71
2016-08-02T01:07:27.114Z,14.66
2016-08-02T01:08:15.634Z,14.66
2016-08-02T01:09:17.611Z,14.65
2016-08-02T01:10:14.655Z,14.61
2016-08-02T01:11:21.831Z,14.61
2016-08-02T01:12:18.083Z,14.60
2016-08-02T01:13:12.838Z,14.66
2016-08-02T01:14:16.991Z,14.64
2016-08-02T01:15:16.336Z,14.63
2016-08-02T01:16:21.985Z,14.60
2016-08-02T01:17:17.259Z,14.57
2016-08-02T01:18:19.559Z,14.54
2016-08-02T01:19:17.138Z,14.53
2016-08-02T01:20:21.315Z,14.56
2016-08-02T01:21:21.480Z,14.57
2016-08-02T01:22:22.291Z,14.55
2016-08-02T01:23:21.570Z,14.52
2016-08-02T01:24:17.107Z,14.48
2016-08-02T01:25:14.776Z,14.53
2016-08-02T01:26:22.486Z,14.61
2016-08-02T01:27:18.214Z,14.55
2016-08-02T01:28:16.875Z,14.54
2016-08-02T01:30:17.000Z,14.55
2016-08-02T01:31:18.434Z,14.59
2016-08-02T01:34:19.614Z,14.47
2016-08-02T01:38:17.142Z,14.46
2016-08-02T01:42:19.172Z,14.41
2016-08-02T01:44:20.065Z,14.37
2016-08-02T01:45:18.835Z,14.32
2016-08-02T01:47:14.845Z,14.45
2016-08-02T01:48:15.889Z,14.39
2016-08-02T01:49:21.739Z,14.37
2016-08-02T01:51:12.628Z,14.36
2016-08-02T01:52:26.323Z,14.37
2016-08-02T01:53:18.710Z,14.43
2016-08-02T01:54:16.864Z,14.38
2016-08-02T01:59:17.008Z,14.30
2016-08-02T02:04:12.860Z,14.23
2016-08-02T02:05:17.310Z,14.22
2016-08-02T02:07:19.678Z,14.26
2016-08-02T02:09:14.776Z,14.33
2016-08-02T02:10:13.376Z,14.35
2016-08-02T02:18:18.231Z,14.21
2016-08-02T02:20:21.442Z,14.19
2016-08-02T02:22:17.144Z,14.13
2016-08-02T02:35:17.712Z,14.09
2016-08-02T02:36:17.667Z,14.08
2016-08-02T02:41:13.546Z,14.20
2016-08-02T02:48:20.818Z,14.18
2016-08-02T02:58:13.534Z,14.22
2016-08-02T02:59:56.192Z,14.18
2016-08-02T03:11:24.240Z,14.22
2016-08-02T03:12:17.189Z,14.16
2016-08-02T03:13:18.484Z,14.40
2016-08-02T03:15:18.131Z,14.43
2016-08-02T03:17:17.305Z,14.31
2016-08-02T03:19:17.419Z,14.32
2016-08-02T03:25:21.862Z,14.46
2016-08-02T03:30:17.291Z,14.79
2016-08-02T03:31:12.785Z,14.76
2016-08-02T03:33:18.085Z,14.73
2016-08-02T03:36:17.977Z,14.71
2016-08-02T03:38:16.985Z,14.64
2016-08-02T03:41:15.358Z,14.89
2016-08-02T03:49:20.780Z,15.07
2016-08-02T03:50:20.859Z,15.02
2016-08-02T03:51:18.447Z,15.03
2016-08-02T03:52:21.528Z,14.88
2016-08-02T03:53:19.490Z,14.87
2016-08-02T03:57:46.628Z,14.92
2016-08-02T04:00:12.253Z,14.89
2016-08-02T04:01:30.968Z,14.83
2016-08-02T04:02:15.986Z,14.78
2016-08-02T04:04:13.282Z,14.85
2016-08-02T04:05:16.791Z,14.93
2016-08-02T04:06:20.938Z,14.95
2016-08-02T04:14:26.805Z,15.09
2016-08-02T04:21:23.589Z,15.24
2016-08-02T04:22:21.706Z,15.21
2016-08-02T04:23:17.275Z,15.31
2016-08-02T04:26:12.240Z,15.20
2016-08-02T04:30:14.406Z,15.43
2016-08-02T04:31:20.970Z,15.44
2016-08-02T04:34:19.396Z,15.40
2016-08-02T04:37:20.463Z,15.44
2016-08-02T04:38:41.240Z,15.48
2016-08-02T04:40:15.042Z,15.52
2016-08-02T04:41:17.218Z,15.55
2016-08-02T04:42:22.614Z,15.50
2016-08-02T04:43:18.172Z,15.52
2016-08-02T04:45:22.909Z,15.54
2016-08-02T04:46:13.678Z,15.58
2016-08-02T04:47:22.794Z,15.63
2016-08-02T04:48:23.152Z,15.53
2016-08-02T04:49:13.177Z,15.52
2016-08-02T04:50:14.716Z,15.56
2016-08-02T04:52:13.256Z,15.58
2016-08-02T04:53:17.560Z,15.67
2016-08-02T04:55:15.151Z,15.63
2016-08-02T04:56:18.515Z,15.69
2016-08-02T04:58:13.574Z,15.72
2016-08-02T05:02:37.250Z,15.82
2016-08-02T05:03:16.929Z,15.76
2016-08-02T05:04:12.986Z,15.73
2016-08-02T05:05:19.388Z,15.74
2016-08-02T05:08:21.417Z,15.75
2016-08-02T05:10:14.479Z,15.69
2016-08-02T05:13:14.294Z,15.85
2016-08-02T05:14:14.621Z,15.92
2016-08-02T05:16:11.623Z,15.84
2016-08-02T05:17:21.472Z,15.83
2016-08-02T05:18:27.365Z,15.92
2016-08-02T05:20:14.171Z,15.87
2016-08-02T05:21:15.274Z,15.82
2016-08-02T05:22:13.353Z,15.78
2016-08-02T05:23:14.518Z,15.76
2016-08-02T05:24:16.420Z,15.84
2016-08-02T05:25:16.787Z,15.77
2016-08-02T05:27:21.066Z,15.90
2016-08-02T05:29:14.825Z,15.93
2016-08-02T05:31:20.643Z,15.87
2016-08-02T05:33:22.591Z,15.95
2016-08-02T05:35:14.467Z,16.03
2016-08-02T05:36:22.330Z,15.98
2016-08-02T05:38:17.205Z,16.09
2016-08-02T05:40:22.936Z,15.96
2016-08-02T05:41:11.570Z,16.04
2016-08-02T05:42:18.643Z,16.10
2016-08-02T05:43:19.543Z,16.16
2016-08-02T05:44:21.237Z,16.18
2016-08-02T05:45:17.585Z,16.20
2016-08-02T05:46:19.984Z,16.30
2016-08-02T05:47:22.587Z,16.32
2016-08-02T05:48:16.799Z,16.34
2016-08-02T05:49:18.034Z,16.38
2016-08-02T05:50:13.048Z,16.44
2016-08-02T05:51:22.574Z,16.50
2016-08-02T05:52:21.026Z,16.52
2016-08-02T05:53:13.441Z,16.55
2016-08-02T05:55:11.759Z,16.42
2016-08-02T05:56:12.592Z,16.48
2016-08-02T05:57:11.619Z,16.57
2016-08-02T05:58:22.066Z,16.59
2016-08-02T05:59:12.091Z,16.59
2016-08-02T06:00:16.661Z,16.63
2016-08-02T06:02:17.515Z,16.69
2016-08-02T06:03:15.000Z,16.68
2016-08-02T06:04:23.064Z,16.67
2016-08-02T06:05:11.352Z,16.70
2016-08-02T06:06:16.998Z,16.71
2016-08-02T06:07:12.170Z,16.70
2016-08-02T06:08:20.213Z,16.72
2016-08-02T06:09:14.938Z,16.77
2016-08-02T06:10:24.354Z,16.79
2016-08-02T06:11:13.020Z,16.82
2016-08-02T06:12:12.170Z,16.87
2016-08-02T06:13:17.976Z,16.87
2016-08-02T06:14:12.804Z,16.91
2016-08-02T06:15:12.305Z,16.89
2016-08-02T06:16:16.523Z,16.85
2016-08-02T06:17:11.519Z,16.83
2016-08-02T06:18:18.813Z,16.91
2016-08-02T06:19:12.459Z,16.95
2016-08-02T06:20:17.968Z,17.03
2016-08-02T06:21:27.762Z,17.07
2016-08-02T06:22:21.967Z,17.15
2016-08-02T06:23:12.210Z,17.22
2016-08-02T06:25:13.033Z,17.29
2016-08-02T06:26:22.513Z,17.38
2016-08-02T06:27:12.627Z,17.44
2016-08-02T06:28:13.671Z,17.47
2016-08-02T06:29:11.836Z,17.48
2016-08-02T06:30:26.533Z,17.46
2016-08-02T06:33:26.494Z,17.54
2016-08-02T06:34:22.625Z,17.60
2016-08-02T06:35:17.185Z,17.63
2016-08-02T06:36:18.322Z,17.65
2016-08-02T06:38:20.570Z,17.71
2016-08-02T06:39:22.785Z,17.77
2016-08-02T06:40:15.585Z,17.80
2016-08-02T06:41:27.214Z,17.80
2016-08-02T06:43:20.373Z,17.80
2016-08-02T06:45:13.122Z,17.82
2016-08-02T06:46:13.764Z,17.82
2016-08-02T06:47:19.887Z,17.80
2016-08-02T06:48:13.186Z,17.79
2016-08-02T06:49:20.734Z,17.80
2016-08-02T06:50:18.009Z,17.77
2016-08-02T06:52:27.305Z,17.63
2016-08-02T06:53:17.479Z,17.56
2016-08-02T06:54:14.714Z,17.57
2016-08-02T06:55:16.887Z,17.60
2016-08-02T06:56:17.581Z,17.56
2016-08-02T06:57:12.670Z,17.51
2016-08-02T06:58:15.174Z,17.49
2016-08-02T06:59:19.236Z,17.51
2016-08-02T07:02:15.580Z,17.59
2016-08-02T07:04:21.152Z,17.55
2016-08-02T07:05:16.063Z,17.46
2016-08-02T07:08:21.560Z,17.52
2016-08-02T07:09:22.107Z,17.56
2016-08-02T07:10:13.181Z,17.59
2016-08-02T07:13:23.385Z,17.68
2016-08-02T07:14:11.648Z,17.74
2016-08-02T07:16:31.769Z,17.76
2016-08-02T07:18:21.066Z,17.74
2016-08-02T07:19:22.627Z,17.74
2016-08-02T07:21:13.036Z,17.86
2016-08-02T07:23:26.311Z,17.91
2016-08-02T07:24:13.703Z,17.93
2016-08-02T07:25:16.249Z,17.94
2016-08-02T07:26:28.419Z,17.98
2016-08-02T07:27:16.149Z,18.03
2016-08-02T07:28:21.428Z,18.03
2016-08-02T07:29:20.752Z,18.06
2016-08-02T07:30:18.606Z,18.04
2016-08-02T07:31:17.394Z,18.07
2016-08-02T07:32:13.941Z,18.07
2016-08-02T07:33:19.985Z,18.10
2016-08-02T07:34:09.348Z,18.12
2016-08-02T07:35:22.092Z,18.19
2016-08-02T07:36:21.163Z,18.23
2016-08-02T07:38:14.314Z,18.28
2016-08-02T07:40:22.093Z,18.25
2016-08-02T07:42:20.630Z,18.37
2016-08-02T07:43:31.659Z,18.41
2016-08-02T07:47:23.245Z,18.68
2016-08-02T07:48:15.729Z,18.74
2016-08-02T07:51:24.335Z,18.96
2016-08-02T07:52:19.485Z,18.97
2016-08-02T07:53:23.657Z,18.98
2016-08-02T07:55:15.548Z,19.06
2016-08-02T07:56:15.530Z,18.97
2016-08-02T07:57:27.541Z,18.99
2016-08-02T07:58:17.912Z,19.01
2016-08-02T07:59:19.956Z,19.16
2016-08-02T08:00:12.687Z,19.19
2016-08-02T08:01:21.583Z,19.20
2016-08-02T08:02:21.228Z,19.24
2016-08-02T08:05:13.403Z,19.33
2016-08-02T08:06:19.819Z,19.38
2016-08-02T08:08:19.371Z,19.47
2016-08-02T08:09:11.452Z,19.52
2016-08-02T08:10:16.875Z,19.55
2016-08-02T08:12:23.337Z,19.62
2016-08-02T08:13:17.661Z,19.67
2016-08-02T08:15:23.334Z,19.73
2016-08-02T08:19:13.347Z,19.75
2016-08-02T08:21:14.578Z,19.82
2016-08-02T08:22:18.010Z,19.82
2016-08-02T08:23:23.955Z,19.81
2016-08-02T08:24:18.451Z,19.80
2016-08-02T08:25:13.036Z,19.82
2016-08-02T08:27:15.141Z,19.90
2016-08-02T08:28:19.572Z,19.92
2016-08-02T08:29:21.349Z,19.94
2016-08-02T08:31:22.747Z,19.99
2016-08-02T08:32:12.691Z,20.04
2016-08-02T08:33:12.754Z,20.09
2016-08-02T08:35:18.253Z,20.10
2016-08-02T08:36:28.456Z,20.10
2016-08-02T08:37:12.293Z,20.13
2016-08-02T08:38:13.512Z,20.16
2016-08-02T08:39:24.235Z,20.14
2016-08-02T08:40:22.861Z,20.16
2016-08-02T08:41:21.441Z,20.16
2016-08-02T08:43:22.404Z,20.15
2016-08-02T08:45:23.262Z,20.26
2016-08-02T08:47:17.464Z,20.33
2016-08-02T08:48:19.173Z,20.33
2016-08-02T08:50:14.869Z,20.48
2016-08-02T08:52:23.190Z,20.49
2016-08-02T08:53:15.454Z,20.58
2016-08-02T08:57:23.455Z,20.55
2016-08-02T09:00:18.475Z,20.60
2016-08-02T09:02:28.768Z,20.58
2016-08-02T09:04:16.668Z,20.49
2016-08-02T09:05:14.776Z,20.48
2016-08-02T09:12:20.650Z,20.68
2016-08-02T09:13:18.704Z,20.66
2016-08-02T09:14:22.354Z,20.70
2016-08-02T09:15:18.558Z,20.62
2016-08-02T09:23:21.462Z,20.79
2016-08-02T09:24:18.570Z,20.85
2016-08-02T09:25:27.839Z,20.78
2016-08-02T09:27:13.790Z,20.80
2016-08-02T09:28:14.836Z,20.84
2016-08-02T09:29:23.580Z,20.85
2016-08-02T09:32:12.557Z,20.85
2016-08-02T09:34:21.227Z,20.96
2016-08-02T09:35:26.766Z,21.03
2016-08-02T09:37:13.479Z,21.07
2016-08-02T09:38:12.872Z,21.04
2016-08-02T09:39:23.233Z,21.02
2016-08-02T09:40:27.409Z,20.96
2016-08-02T09:41:19.337Z,20.78
2016-08-02T09:42:14.422Z,20.81
2016-08-02T09:43:17.118Z,20.81
2016-08-02T09:44:17.986Z,20.82
2016-08-02T09:45:17.618Z,20.81
2016-08-02T09:46:21.392Z,20.83
2016-08-02T09:47:13.522Z,20.87
2016-08-02T09:48:12.798Z,20.91
2016-08-02T09:49:12.862Z,20.91
2016-08-02T09:50:22.485Z,20.95
2016-08-02T09:51:17.921Z,20.94
2016-08-02T09:52:16.261Z,20.97
2016-08-02T09:53:11.981Z,21.03
2016-08-02T09:54:12.970Z,21.03
2016-08-02T09:56:25.361Z,21.12
2016-08-02T09:57:23.519Z,21.13
2016-08-02T09:58:20.857Z,21.20
2016-08-02T09:59:21.207Z,21.24
2016-08-02T10:00:16.781Z,21.27
2016-08-02T10:01:27.720Z,21.28
2016-08-02T10:02:21.811Z,21.29
2016-08-02T10:06:52.159Z,21.15
2016-08-02T10:07:15.135Z,21.14
2016-08-02T10:08:13.058Z,21.11
2016-08-02T10:09:12.492Z,21.13
2016-08-02T10:10:18.204Z,21.01
2016-08-02T10:11:24.083Z,21.00
2016-08-02T10:12:16.350Z,21.07
2016-08-02T10:14:13.069Z,21.08
2016-08-02T10:16:19.486Z,21.08
2016-08-02T10:17:12.939Z,21.10
2016-08-02T10:18:26.771Z,21.16
2016-08-02T10:19:17.065Z,21.10
2016-08-02T10:21:12.412Z,21.06
2016-08-02T10:22:18.936Z,21.09
2016-08-02T10:23:19.247Z,21.12
2016-08-02T10:24:13.102Z,21.18
2016-08-02T10:25:14.702Z,21.24
2016-08-02T10:26:23.017Z,21.29
2016-08-02T10:27:28.465Z,21.46
2016-08-02T10:28:20.665Z,21.55
2016-08-02T10:31:27.759Z,21.54
2016-08-02T10:32:22.964Z,21.56
2016-08-02T10:33:12.349Z,21.63
2016-08-02T10:34:27.993Z,21.62
2016-08-02T10:35:18.658Z,21.66
2016-08-02T10:36:21.785Z,21.70
2016-08-02T10:37:21.903Z,21.77
2016-08-02T10:39:11.728Z,21.73
2016-08-02T10:40:12.463Z,21.59
2016-08-02T10:41:12.150Z,21.59
2016-08-02T10:42:27.121Z,21.65
2016-08-02T10:44:14.538Z,21.68
2016-08-02T10:45:18.856Z,21.73
2016-08-02T10:46:16.715Z,21.76
2016-08-02T10:47:28.256Z,21.70
2016-08-02T10:48:23.950Z,21.74
2016-08-02T10:49:13.413Z,21.67
2016-08-02T10:50:21.466Z,21.60
2016-08-02T10:51:12.672Z,21.58
2016-08-02T10:52:23.635Z,21.62
2016-08-02T10:53:11.722Z,21.66
2016-08-02T10:54:21.767Z,21.77
2016-08-02T10:56:16.422Z,21.93
2016-08-02T10:57:20.277Z,21.82
2016-08-02T10:58:22.905Z,21.88
2016-08-02T10:59:19.088Z,21.81
2016-08-02T11:00:14.991Z,21.76
2016-08-02T11:01:23.072Z,21.79
2016-08-02T11:02:15.256Z,21.84
2016-08-02T11:03:16.911Z,21.77
2016-08-02T11:04:12.467Z,21.77
2016-08-02T11:05:17.272Z,21.79
2016-08-02T11:06:29.177Z,21.77
2016-08-02T11:07:14.199Z,21.74
2016-08-02T11:08:22.541Z,21.79
2016-08-02T11:09:12.984Z,21.78
2016-08-02T11:10:19.005Z,21.86
2016-08-02T11:11:17.488Z,21.90
2016-08-02T11:12:13.815Z,22.01
2016-08-02T11:14:22.791Z,22.12
2016-08-02T11:15:21.766Z,22.20
2016-08-02T11:16:17.892Z,22.22
2016-08-02T11:18:22.042Z,22.12
2016-08-02T11:19:26.143Z,22.10
2016-08-02T11:20:15.079Z,22.11
2016-08-02T11:21:20.565Z,22.05
2016-08-02T11:22:21.699Z,22.01
2016-08-02T11:23:21.208Z,22.06
2016-08-02T11:24:13.258Z,22.10
2016-08-02T11:25:13.762Z,22.14
2016-08-02T11:26:20.886Z,22.11
2016-08-02T11:27:21.360Z,22.04
2016-08-02T11:28:27.142Z,22.06
2016-08-02T11:31:16.823Z,22.08
2016-08-02T11:32:19.252Z,22.08
2016-08-02T11:33:23.108Z,22.09
2016-08-02T11:35:12.753Z,22.09
2016-08-02T11:36:12.242Z,22.09
2016-08-02T11:37:12.098Z,22.12
2016-08-02T11:38:13.074Z,22.17
2016-08-02T11:40:17.367Z,22.05
2016-08-02T11:41:17.933Z,22.16
2016-08-02T11:42:27.902Z,22.14
2016-08-02T11:44:18.526Z,22.16
2016-08-02T11:47:15.978Z,22.13
2016-08-02T11:48:23.138Z,22.16
2016-08-02T11:49:21.065Z,22.19
2016-08-02T11:52:21.056Z,22.25
2016-08-02T11:53:28.491Z,22.24
2016-08-02T11:55:17.053Z,22.26
2016-08-02T11:56:21.212Z,22.25
2016-08-02T11:57:21.391Z,22.26
2016-08-02T11:58:22.575Z,22.28
2016-08-02T11:59:12.231Z,22.26
2016-08-02T12:00:12.326Z,22.24
2016-08-02T12:01:20.579Z,22.16
2016-08-02T12:02:14.962Z,22.11
2016-08-02T12:03:11.206Z,22.05
2016-08-02T12:04:23.493Z,22.08
2016-08-02T12:06:23.338Z,22.18
2016-08-02T12:07:12.513Z,22.23
2016-08-02T12:08:21.817Z,22.17
2016-08-02T12:09:11.986Z,22.24
2016-08-02T12:10:22.561Z,22.25
2016-08-02T12:11:17.250Z,22.29
2016-08-02T12:12:12.647Z,22.29
2016-08-02T12:14:14.607Z,22.39
2016-08-02T12:15:19.620Z,22.31
2016-08-02T12:16:19.391Z,22.35
2016-08-02T12:19:18.915Z,22.35
2016-08-02T12:20:12.482Z,22.31
2016-08-02T12:21:22.916Z,22.41
2016-08-02T12:22:18.581Z,22.45
2016-08-02T12:23:16.942Z,22.41
2016-08-02T12:24:12.891Z,22.49
2016-08-02T12:28:23.784Z,22.46
2016-08-02T12:29:24.983Z,22.53
2016-08-02T12:31:22.679Z,22.50
2016-08-02T12:34:17.923Z,22.75
2016-08-02T12:36:12.548Z,22.71
2016-08-02T12:38:26.375Z,22.72
2016-08-02T12:39:22.898Z,22.67
2016-08-02T12:40:09.942Z,22.52
2016-08-02T12:41:12.342Z,22.53
2016-08-02T12:42:13.384Z,22.59
2016-08-02T12:46:22.794Z,22.60
2016-08-02T12:47:24.396Z,22.62
2016-08-02T12:48:17.358Z,22.55
2016-08-02T12:49:22.335Z,22.56
2016-08-02T12:51:29.386Z,22.52
2016-08-02T12:52:15.770Z,22.55
2016-08-02T12:53:22.925Z,22.51
2016-08-02T12:54:18.108Z,22.48
2016-08-02T12:57:12.295Z,22.44
2016-08-02T12:58:20.784Z,22.50
2016-08-02T12:59:25.295Z,22.49
2016-08-02T13:01:13.027Z,22.64
2016-08-02T13:02:11.764Z,22.73
2016-08-02T13:03:10.495Z,22.67
2016-08-02T13:04:12.813Z,22.72
2016-08-02T13:08:22.885Z,22.99
2016-08-02T13:09:12.274Z,22.93
2016-08-02T13:12:11.931Z,23.04
2016-08-02T13:13:13.769Z,23.05
2016-08-02T13:16:18.649Z,23.10
2016-08-02T13:18:18.302Z,23.04
2016-08-02T13:19:18.280Z,23.01
2016-08-02T13:21:13.095Z,22.91
2016-08-02T13:23:19.183Z,22.92
2016-08-02T13:25:19.244Z,22.76
2016-08-02T13:26:35.578Z,22.76
2016-08-02T13:28:12.137Z,22.73
2016-08-02T13:29:23.141Z,22.72
2016-08-02T13:30:26.365Z,22.71
2016-08-02T13:31:19.897Z,22.72
2016-08-02T13:32:12.655Z,22.71
2016-08-02T13:35:13.307Z,22.77
2016-08-02T13:39:21.405Z,22.68
2016-08-02T13:40:17.886Z,22.66
2016-08-02T13:41:25.168Z,22.64
2016-08-02T13:42:13.245Z,22.65
2016-08-02T13:44:19.452Z,22.52
2016-08-02T13:46:17.392Z,22.56
2016-08-02T13:49:23.073Z,22.49
2016-08-02T13:53:22.821Z,22.45
2016-08-02T13:54:24.121Z,22.47
2016-08-02T13:57:20.931Z,22.41
2016-08-02T13:59:12.718Z,22.37
2016-08-02T14:00:12.178Z,22.35
2016-08-02T14:04:23.794Z,22.31
2016-08-02T14:07:24.528Z,22.29
2016-08-02T14:08:24.949Z,22.29
2016-08-02T14:18:14.746Z,22.23
2016-08-02T14:20:19.391Z,22.28
2016-08-02T14:22:19.140Z,22.31
2016-08-02T14:24:23.217Z,22.32
2016-08-02T14:25:17.352Z,22.32
2016-08-02T14:27:20.257Z,22.29
2016-08-02T14:28:23.403Z,22.27
2016-08-02T14:31:18.750Z,22.26
2016-08-02T14:32:25.684Z,22.28
2016-08-02T14:38:29.000Z,22.23
2016-08-02T14:39:10.094Z,22.24
2016-08-02T14:40:19.301Z,22.26
2016-08-02T14:44:18.193Z,22.24
2016-08-02T14:47:24.391Z,22.28
2016-08-02T14:49:10.160Z,22.23
2016-08-02T14:51:24.142Z,22.28
2016-08-02T14:54:18.196Z,22.32
2016-08-02T14:55:14.526Z,22.35
2016-08-02T14:56:14.111Z,22.36
2016-08-02T14:57:19.080Z,22.38
2016-08-02T15:00:18.076Z,22.28
2016-08-02T15:02:15.036Z,22.30
2016-08-02T15:03:18.639Z,22.25
2016-08-02T15:04:13.280Z,22.18
2016-08-02T15:05:22.463Z,22.14
2016-08-02T15:06:16.959Z,22.10
2016-08-02T15:07:12.756Z,22.06
2016-08-02T15:08:18.691Z,22.01
2016-08-02T15:09:14.083Z,22.00
2016-08-02T15:11:18.000Z,22.06
2016-08-02T15:12:12.648Z,22.06
2016-08-02T15:13:17.675Z,22.05
2016-08-02T15:14:20.759Z,22.01
2016-08-02T15:15:12.732Z,22.00
2016-08-02T15:16:24.820Z,21.86
2016-08-02T15:17:14.881Z,21.79
2016-08-02T15:19:32.291Z,21.76
2016-08-02T15:20:28.383Z,21.71
2016-08-02T15:21:22.530Z,21.58
2016-08-02T15:22:12.771Z,21.58
2016-08-02T15:23:27.298Z,21.57
2016-08-02T15:24:12.733Z,21.57
2016-08-02T15:25:16.636Z,21.51
2016-08-02T15:26:10.731Z,21.54
2016-08-02T15:28:19.985Z,21.52
2016-08-02T15:30:20.724Z,21.58
2016-08-02T15:31:18.360Z,21.53
2016-08-02T15:34:20.257Z,21.53
2016-08-02T15:35:19.478Z,21.55
2016-08-02T15:36:18.588Z,21.55
2016-08-02T15:37:22.669Z,21.51
2016-08-02T15:38:26.637Z,21.51
2016-08-02T15:40:21.878Z,21.56
2016-08-02T15:42:22.317Z,21.57
2016-08-02T15:43:15.670Z,21.55
2016-08-02T15:45:17.902Z,21.45
2016-08-02T15:46:19.950Z,21.47
2016-08-02T15:47:12.481Z,21.41
2016-08-02T15:48:19.500Z,21.42
2016-08-02T15:49:13.366Z,21.47
2016-08-02T15:50:13.679Z,21.40
2016-08-02T15:52:14.274Z,21.32
2016-08-02T15:53:14.068Z,21.28
2016-08-02T15:54:12.104Z,21.23
2016-08-02T15:55:17.287Z,21.17
2016-08-02T15:58:21.270Z,21.21
2016-08-02T15:59:19.337Z,21.22
2016-08-02T16:00:22.449Z,21.20
2016-08-02T16:01:18.532Z,21.17
2016-08-02T16:02:22.693Z,21.25
2016-08-02T16:03:21.862Z,21.29
2016-08-02T16:05:26.860Z,21.26
2016-08-02T16:06:22.647Z,21.27
2016-08-02T16:07:18.421Z,21.26
2016-08-02T16:09:13.602Z,21.21
2016-08-02T16:10:10.285Z,21.25
2016-08-02T16:11:07.853Z,21.24
2016-08-02T16:12:12.881Z,21.21
2016-08-02T16:13:22.279Z,21.23
2016-08-02T16:14:21.572Z,21.21
2016-08-02T16:16:20.957Z,21.27
2016-08-02T16:18:12.746Z,21.25
2016-08-02T16:19:20.322Z,21.23
2016-08-02T16:20:19.914Z,21.25
2016-08-02T16:21:11.992Z,21.25
2016-08-02T16:22:17.982Z,21.26
2016-08-02T16:23:14.993Z,21.28
2016-08-02T16:24:23.252Z,21.31
2016-08-02T16:25:17.886Z,21.28
2016-08-02T16:26:20.400Z,21.31
2016-08-02T16:27:17.104Z,21.30
2016-08-02T16:28:12.633Z,21.30
2016-08-02T16:29:14.497Z,21.33
2016-08-02T16:30:16.169Z,21.35
2016-08-02T16:31:21.173Z,21.27
2016-08-02T16:32:13.844Z,21.31
2016-08-02T16:33:12.198Z,21.35
2016-08-02T16:34:22.756Z,21.35
2016-08-02T16:35:12.974Z,21.30
2016-08-02T16:36:19.613Z,21.30
2016-08-02T16:37:21.976Z,21.29
2016-08-02T16:39:12.817Z,21.28
2016-08-02T16:41:23.441Z,21.29
2016-08-02T16:42:14.701Z,21.30
2016-08-02T16:43:12.364Z,21.32
2016-08-02T16:44:16.461Z,21.29
2016-08-02T16:45:16.105Z,21.24
2016-08-02T16:46:22.468Z,21.25
2016-08-02T16:48:21.213Z,21.24
2016-08-02T16:49:21.010Z,21.22
2016-08-02T16:50:19.069Z,21.20
2016-08-02T16:51:17.570Z,21.24
2016-08-02T16:53:31.610Z,21.26
2016-08-02T16:54:20.867Z,21.24
2016-08-02T16:55:13.711Z,21.24
2016-08-02T16:57:17.165Z,21.15
2016-08-02T17:00:18.609Z,20.93
2016-08-02T17:01:21.465Z,20.84
2016-08-02T17:02:19.273Z,20.85
2016-08-02T17:04:18.106Z,20.67
2016-08-02T17:05:18.365Z,20.54
2016-08-02T17:06:27.764Z,20.64
2016-08-02T17:07:17.176Z,20.66
2016-08-02T17:08:17.153Z,20.72
2016-08-02T17:10:18.776Z,20.50
2016-08-02T17:12:20.772Z,20.50
2016-08-02T17:13:22.946Z,20.49
2016-08-02T17:14:18.035Z,20.45
2016-08-02T17:15:22.292Z,20.36
2016-08-02T17:16:12.101Z,20.39
2016-08-02T17:17:17.082Z,20.39
2016-08-02T17:18:23.747Z,20.33
2016-08-02T17:19:13.890Z,20.33
2016-08-02T17:20:18.635Z,20.42
2016-08-02T17:24:20.871Z,20.21
2016-08-02T17:25:12.800Z,20.29
2016-08-02T17:26:12.972Z,20.36
2016-08-02T17:27:28.109Z,20.31
2016-08-02T17:28:23.844Z,20.27
2016-08-02T17:29:15.834Z,20.29
2016-08-02T17:30:14.002Z,20.19
2016-08-02T17:31:18.543Z,20.13
2016-08-02T17:32:19.625Z,20.21
2016-08-02T17:33:18.826Z,20.23
2016-08-02T17:35:24.306Z,20.13
2016-08-02T17:38:17.743Z,19.99
2016-08-02T17:43:12.587Z,20.00
2016-08-02T17:44:12.634Z,19.93
2016-08-02T17:45:22.702Z,19.98
2016-08-02T17:46:13.600Z,19.95
2016-08-02T17:47:18.639Z,19.98
2016-08-02T17:51:22.593Z,20.01
2016-08-02T17:52:17.649Z,19.90
2016-08-02T17:53:23.008Z,19.87
2016-08-02T17:54:14.643Z,19.74
2016-08-02T17:55:21.381Z,19.81
2016-08-02T17:56:21.716Z,19.85
2016-08-02T17:57:13.135Z,19.83
2016-08-02T17:58:22.655Z,19.91
2016-08-02T17:59:17.137Z,19.92
2016-08-02T18:00:20.945Z,19.93
2016-08-02T18:01:13.638Z,19.91
2016-08-02T18:02:22.686Z,19.89
2016-08-02T18:03:15.545Z,19.80
2016-08-02T18:05:17.400Z,19.90
2016-08-02T18:06:12.377Z,19.91
2016-08-02T18:07:14.882Z,19.85
2016-08-02T18:08:17.930Z,19.86
2016-08-02T18:09:17.587Z,19.77
2016-08-02T18:10:17.387Z,19.77
2016-08-02T18:11:12.957Z,19.79
2016-08-02T18:13:17.521Z,19.81
2016-08-02T18:14:12.286Z,19.81
2016-08-02T18:15:11.815Z,19.85
2016-08-02T18:17:20.255Z,19.86
2016-08-02T18:18:15.683Z,19.88
2016-08-02T18:19:24.401Z,19.81
2016-08-02T18:20:13.588Z,19.83
2016-08-02T18:21:12.706Z,19.88
2016-08-02T18:22:18.018Z,19.88
2016-08-02T18:23:22.658Z,19.76
2016-08-02T18:24:16.004Z,19.75
2016-08-02T18:25:16.503Z,19.74
2016-08-02T18:26:27.663Z,19.80
2016-08-02T18:27:22.528Z,19.84
2016-08-02T18:28:17.193Z,19.87
2016-08-02T18:29:11.724Z,19.87
2016-08-02T18:30:18.229Z,19.83
2016-08-02T18:31:21.339Z,19.80
2016-08-02T18:32:21.223Z,19.81
2016-08-02T18:33:17.251Z,19.79
2016-08-02T18:34:12.493Z,19.84
2016-08-02T18:35:18.548Z,19.76
2016-08-02T18:36:10.019Z,19.79
2016-08-02T18:37:27.898Z,19.83
2016-08-02T18:39:15.043Z,19.81
2016-08-02T18:40:26.694Z,19.80
2016-08-02T18:41:25.471Z,19.78
2016-08-02T18:42:12.673Z,19.81
2016-08-02T18:43:20.192Z,19.70
2016-08-02T18:44:20.263Z,19.68
2016-08-02T18:45:12.575Z,19.72
2016-08-02T18:47:17.493Z,19.79
2016-08-02T18:48:14.380Z,19.78
2016-08-02T18:49:17.022Z,19.73
2016-08-02T18:50:19.221Z,19.61
2016-08-02T18:52:22.275Z,19.50
2016-08-02T18:53:21.432Z,19.61
2016-08-02T18:56:29.045Z,19.73
2016-08-02T18:57:12.482Z,19.74
2016-08-02T18:58:11.756Z,19.76
2016-08-02T19:01:23.438Z,19.60
2016-08-02T19:02:14.771Z,19.62
2016-08-02T19:09:17.195Z,19.59
2016-08-02T19:10:17.826Z,19.62
2016-08-02T19:13:12.990Z,19.29
2016-08-02T19:15:18.815Z,19.37
2016-08-02T19:16:23.139Z,19.25
2016-08-02T19:17:13.072Z,19.09
2016-08-02T19:18:17.775Z,19.17
2016-08-02T19:19:18.267Z,19.23
2016-08-02T19:20:17.004Z,19.32
2016-08-02T19:21:23.698Z,19.21
2016-08-02T19:22:17.187Z,19.20
2016-08-02T19:23:22.501Z,19.17
2016-08-02T19:24:11.686Z,19.13
2016-08-02T19:25:17.491Z,18.97
2016-08-02T19:27:18.257Z,18.98